Time;durP1;ratioP1;P1;durP2;ratioP2;P2;SDS_P1;SDS_P2;PMS_P1;PMS_P2;Temp;Humidity;BMP_temperature;BMP_pressure;BME280_temperature;BME280_humidity;BME280_pressure;Samples;Min_cycle;Max_cycle;Signal;HPM_P1;HPM_P2
2024/01/05 00:01:13;;;;;;;1.75;0.90;;;20.80;53.90;;;;;;5037295;28;20035;-65
2024/01/05 00:03:39;;;;;;;2.35;0.70;;;20.70;53.80;;;;;;5037635;28;20021;-65
2024/01/05 00:06:05;;;;;;;2.40;0.77;;;20.70;53.80;;;;;;5038100;28;20113;-65
2024/01/05 00:08:30;;;;;;;1.02;0.80;;;20.70;53.80;;;;;;5038256;28;20051;-65
2024/01/05 00:10:56;;;;;;;0.88;0.60;;;20.70;53.90;;;;;;5037330;28;20033;-65
2024/01/05 00:13:22;;;;;;;1.08;0.70;;;20.70;53.90;;;;;;5035617;28;20048;-65
2024/01/05 00:15:47;;;;;;;0.90;0.80;;;20.70;53.90;;;;;;5039916;28;20063;-66
2024/01/05 00:18:13;;;;;;;1.30;0.70;;;20.70;53.90;;;;;;5038446;28;20036;-66
2024/01/05 00:20:38;;;;;;;1.50;0.70;;;20.70;53.90;;;;;;5038551;28;20030;-66
2024/01/05 00:23:04;;;;;;;1.23;0.70;;;20.70;53.90;;;;;;5036620;28;20055;-66
2024/01/05 00:25:30;;;;;;;0.90;0.70;;;20.70;53.90;;;;;;5038883;28;20646;-67
2024/01/05 00:27:55;;;;;;;1.50;0.70;;;20.70;53.90;;;;;;5035129;28;20041;-66
2024/01/05 00:30:21;;;;;;;1.10;0.80;;;20.60;53.90;;;;;;5041175;28;20540;-65
2024/01/05 00:32:47;;;;;;;1.17;0.70;;;20.60;53.90;;;;;;5037755;28;20113;-65
2024/01/05 00:35:12;;;;;;;1.00;0.80;;;20.60;53.90;;;;;;5036412;28;20450;-65
2024/01/05 00:37:38;;;;;;;0.80;0.60;;;20.60;53.90;;;;;;5037009;28;20037;-65
2024/01/05 00:40:06;;;;;;;1.15;0.82;;;20.60;53.90;;;;;;5038382;28;20029;-70
2024/01/05 00:42:31;;;;;;;1.08;0.65;;;20.60;53.90;;;;;;5034493;28;20013;-71
2024/01/05 00:44:57;;;;;;;1.00;0.63;;;20.60;53.90;;;;;;5038584;28;20095;-70
2024/01/05 00:47:23;;;;;;;1.23;0.75;;;20.60;53.90;;;;;;5039139;28;20438;-71
2024/01/05 00:49:48;;;;;;;0.85;0.70;;;20.60;53.90;;;;;;5037530;28;20116;-71
2024/01/05 00:52:14;;;;;;;2.10;0.70;;;20.60;53.90;;;;;;5038838;28;20032;-70
2024/01/05 00:54:40;;;;;;;1.05;0.70;;;20.50;53.90;;;;;;5037333;28;20029;-71
2024/01/05 00:57:06;;;;;;;1.45;0.77;;;20.50;53.90;;;;;;5036363;28;20033;-71
2024/01/05 00:59:32;;;;;;;1.05;0.70;;;20.50;53.90;;;;;;5035132;28;20449;-70
2024/01/05 01:01:57;;;;;;;0.85;0.50;;;20.50;54.00;;;;;;5038734;28;20392;-70
2024/01/05 01:04:23;;;;;;;1.13;0.77;;;20.50;53.90;;;;;;5036835;28;20113;-69
2024/01/05 01:06:49;;;;;;;1.35;0.60;;;20.50;54.00;;;;;;5034296;28;20033;-70
2024/01/05 01:09:15;;;;;;;1.15;0.88;;;20.50;54.00;;;;;;5035341;28;20029;-71
2024/01/05 01:11:40;;;;;;;0.77;0.50;;;20.50;54.00;;;;;;5037952;28;20896;-65
2024/01/05 01:14:06;;;;;;;1.13;0.70;;;20.50;54.00;;;;;;5036985;28;20033;-65
2024/01/05 01:16:32;;;;;;;2.20;0.90;;;20.50;54.00;;;;;;5037375;28;20101;-65
2024/01/05 01:18:59;;;;;;;2.17;0.90;;;20.40;53.90;;;;;;5036365;28;20102;-66
2024/01/05 01:21:24;;;;;;;1.35;0.70;;;20.40;53.90;;;;;;5037439;28;20033;-66
2024/01/05 01:23:51;;;;;;;1.23;0.85;;;20.40;54.00;;;;;;5035769;28;20029;-65
2024/01/05 01:26:17;;;;;;;1.15;0.70;;;20.40;54.00;;;;;;5037464;28;20099;-66
2024/01/05 01:28:42;;;;;;;1.38;0.68;;;20.40;54.00;;;;;;5035644;28;20160;-65
2024/01/05 01:31:08;;;;;;;0.77;0.60;;;20.40;54.00;;;;;;5040696;28;20523;-65
2024/01/05 01:33:34;;;;;;;1.15;0.60;;;20.40;54.00;;;;;;5042252;28;20350;-65
2024/01/05 01:35:59;;;;;;;1.00;0.70;;;20.40;54.00;;;;;;5042059;28;20116;-65
2024/01/05 01:38:25;;;;;;;0.90;0.60;;;20.40;54.00;;;;;;5043681;28;20116;-66
2024/01/05 01:40:53;;;;;;;2.30;0.80;;;20.30;54.00;;;;;;5041760;28;20160;-66
2024/01/05 01:43:21;;;;;;;1.10;0.80;;;20.30;54.00;;;;;;5039340;28;20462;-65
2024/01/05 01:45:47;;;;;;;3.15;0.98;;;20.30;54.00;;;;;;5040747;28;20497;-65
2024/01/05 01:48:16;;;;;;;1.10;0.70;;;20.30;54.00;;;;;;5040984;28;20061;-65
2024/01/05 01:50:41;;;;;;;0.77;0.55;;;20.30;54.00;;;;;;5040389;28;20025;-71
2024/01/05 01:53:07;;;;;;;0.77;0.65;;;20.30;54.00;;;;;;5039244;28;20048;-71
2024/01/05 01:55:33;;;;;;;1.00;0.60;;;20.30;54.00;;;;;;5035495;28;20445;-71
2024/01/05 01:57:58;;;;;;;1.05;0.70;;;20.30;54.00;;;;;;5038237;28;20029;-71
2024/01/05 02:00:24;;;;;;;1.00;0.70;;;20.30;54.60;;;;;;5040649;28;20151;-71
2024/01/05 02:02:51;;;;;;;1.45;0.60;;;20.30;54.10;;;;;;5040648;28;20025;-71
2024/01/05 02:05:17;;;;;;;0.95;0.70;;;20.30;54.10;;;;;;5041240;28;20546;-71
2024/01/05 02:07:44;;;;;;;0.68;0.65;;;20.30;54.10;;;;;;5043181;28;20142;-70
2024/01/05 02:10:09;;;;;;;0.98;0.70;;;20.30;54.10;;;;;;5041252;28;20381;-70
2024/01/05 02:12:35;;;;;;;1.55;0.80;;;20.30;54.10;;;;;;5041485;28;20032;-70
2024/01/05 02:15:00;;;;;;;1.23;0.80;;;20.20;54.10;;;;;;5037066;28;20080;-70
2024/01/05 02:17:35;;;;;;;1.13;0.80;;;20.20;54.00;;;;;;5038205;28;20111;-70
2024/01/05 02:20:02;;;;;;;1.15;0.75;;;20.20;54.10;;;;;;5040017;28;20099;-71
2024/01/05 02:22:29;;;;;;;1.17;0.70;;;20.20;54.10;;;;;;5038700;28;20029;-71
2024/01/05 02:24:57;;;;;;;0.82;0.70;;;20.20;54.10;;;;;;5037888;28;20094;-70
2024/01/05 02:27:23;;;;;;;0.93;0.60;;;20.20;54.10;;;;;;5039084;28;20029;-71
2024/01/05 02:29:48;;;;;;;1.23;0.82;;;20.20;54.10;;;;;;5038228;28;20038;-70
2024/01/05 02:32:15;;;;;;;0.85;0.60;;;20.20;54.10;;;;;;5040955;28;20573;-71
2024/01/05 02:34:40;;;;;;;0.88;0.70;;;20.20;54.10;;;;;;5040216;28;20061;-70
2024/01/05 02:37:06;;;;;;;0.80;0.70;;;20.20;54.10;;;;;;5039672;28;20064;-71
2024/01/05 02:39:32;;;;;;;0.55;0.52;;;20.20;54.20;;;;;;5041312;28;20033;-71
2024/01/05 02:41:57;;;;;;;0.82;0.65;;;20.10;54.10;;;;;;5040719;28;20029;-71
2024/01/05 02:44:23;;;;;;;0.60;0.60;;;20.10;54.10;;;;;;5035786;28;20057;-70
2024/01/05 02:46:48;;;;;;;0.82;0.70;;;20.20;54.20;;;;;;5035776;28;20104;-70
2024/01/05 02:49:14;;;;;;;0.60;0.60;;;20.10;54.10;;;;;;5036072;28;20025;-71
2024/01/05 02:51:40;;;;;;;1.42;0.70;;;20.10;54.10;;;;;;5038155;28;20482;-71
2024/01/05 02:54:06;;;;;;;0.90;0.80;;;20.10;54.20;;;;;;5039495;28;20028;-71
2024/01/05 02:56:33;;;;;;;0.93;0.70;;;20.10;54.10;;;;;;5054463;28;20021;-71
2024/01/05 02:58:59;;;;;;;1.10;0.80;;;20.10;54.10;;;;;;5052317;28;20025;-70
2024/01/05 03:01:25;;;;;;;1.35;0.60;;;20.10;54.20;;;;;;5040473;28;20021;-69
2024/01/05 03:03:51;;;;;;;0.68;0.60;;;20.10;54.20;;;;;;5037145;28;20036;-70
2024/01/05 03:06:18;;;;;;;1.15;0.70;;;20.10;54.20;;;;;;5038499;28;20025;-71
2024/01/05 03:08:44;;;;;;;1.17;0.68;;;20.00;54.10;;;;;;5039118;28;20021;-69
2024/01/05 03:11:10;;;;;;;0.60;0.60;;;20.00;54.10;;;;;;5038181;28;20025;-70
2024/01/05 03:13:36;;;;;;;0.77;0.60;;;20.10;54.20;;;;;;5038781;28;20033;-70
2024/01/05 03:16:02;;;;;;;0.80;0.60;;;20.10;54.20;;;;;;5038117;28;20035;-70
2024/01/05 03:18:27;;;;;;;2.03;0.77;;;20.00;54.20;;;;;;5039568;28;20507;-70
2024/01/05 03:20:53;;;;;;;0.40;0.40;;;20.00;54.20;;;;;;5038289;28;20025;-70
2024/01/05 03:23:19;;;;;;;0.80;0.60;;;20.00;54.20;;;;;;5038838;28;20106;-70
2024/01/05 03:25:45;;;;;;;0.88;0.52;;;20.00;54.20;;;;;;5037942;28;20029;-71
2024/01/05 03:28:11;;;;;;;1.75;0.70;;;20.00;54.20;;;;;;5038939;28;20029;-71
2024/01/05 03:30:41;;;;;;;0.70;0.60;;;20.00;54.20;;;;;;5037168;28;20037;-63
2024/01/05 03:33:06;;;;;;;0.85;0.60;;;20.00;54.20;;;;;;5039364;28;20026;-64
2024/01/05 03:35:32;;;;;;;1.10;0.60;;;20.00;54.20;;;;;;5036574;28;20412;-65
2024/01/05 03:37:57;;;;;;;0.68;0.55;;;20.00;54.20;;;;;;5036640;28;20029;-65
2024/01/05 03:40:23;;;;;;;0.70;0.60;;;20.00;54.30;;;;;;5040285;28;20017;-63
2024/01/05 03:42:49;;;;;;;0.70;0.50;;;20.00;54.30;;;;;;5036755;28;20025;-64
2024/01/05 03:45:15;;;;;;;1.15;0.85;;;20.00;54.30;;;;;;5035289;28;20497;-64
2024/01/05 03:47:40;;;;;;;1.15;0.65;;;19.90;54.30;;;;;;5039464;28;20477;-64
2024/01/05 03:50:06;;;;;;;0.95;0.60;;;19.90;54.30;;;;;;5038028;28;20079;-63
2024/01/05 03:52:32;;;;;;;1.17;0.60;;;19.90;54.30;;;;;;5037045;28;20406;-64
2024/01/05 03:54:58;;;;;;;1.00;0.65;;;19.90;54.30;;;;;;5038155;28;20037;-65
2024/01/05 03:57:23;;;;;;;0.93;0.60;;;19.90;54.30;;;;;;5040200;28;20044;-63
2024/01/05 03:59:50;;;;;;;0.90;0.60;;;19.90;54.40;;;;;;5037324;28;20025;-64
2024/01/05 04:02:16;;;;;;;0.75;0.60;;;19.90;54.40;;;;;;5036928;28;20479;-64
2024/01/05 04:04:42;;;;;;;0.80;0.60;;;19.80;54.40;;;;;;5037525;28;20025;-63
2024/01/05 04:07:07;;;;;;;0.90;0.60;;;19.80;54.40;;;;;;5038977;28;20048;-63
2024/01/05 04:09:33;;;;;;;0.63;0.52;;;19.90;54.40;;;;;;5034851;28;20481;-65
2024/01/05 04:11:59;;;;;;;0.90;0.60;;;19.90;54.50;;;;;;5038427;28;20029;-65
2024/01/05 04:14:25;;;;;;;0.75;0.57;;;19.80;54.40;;;;;;5036650;28;20466;-65
2024/01/05 04:16:51;;;;;;;0.88;0.60;;;19.80;54.40;;;;;;5038597;28;20528;-66
2024/01/05 04:19:16;;;;;;;0.90;0.60;;;19.80;54.40;;;;;;5036687;28;20124;-65
2024/01/05 04:21:42;;;;;;;0.60;0.60;;;19.80;54.50;;;;;;5038080;28;20029;-65
2024/01/05 04:24:08;;;;;;;0.93;0.60;;;19.80;54.50;;;;;;5038657;28;20089;-66
2024/01/05 04:26:33;;;;;;;0.93;0.70;;;19.80;54.50;;;;;;5036354;28;20025;-65
2024/01/05 04:29:00;;;;;;;0.73;0.60;;;19.80;54.50;;;;;;5035071;28;20060;-65
2024/01/05 04:31:25;;;;;;;1.20;0.70;;;19.80;54.50;;;;;;5038590;28;20025;-71
2024/01/05 04:33:51;;;;;;;0.98;0.70;;;19.80;55.00;;;;;;5037947;28;20025;-71
2024/01/05 04:36:18;;;;;;;0.60;0.60;;;19.80;54.50;;;;;;5039259;28;20608;-71
2024/01/05 04:38:44;;;;;;;0.88;0.60;;;19.80;54.50;;;;;;5038004;28;20032;-71
2024/01/05 04:41:11;;;;;;;0.52;0.52;;;19.80;54.50;;;;;;5038792;28;20433;-65
2024/01/05 04:43:37;;;;;;;0.70;0.70;;;19.80;54.50;;;;;;5037715;28;20037;-65
2024/01/05 04:46:05;;;;;;;0.95;0.50;;;19.80;54.60;;;;;;5036812;28;20032;-65
2024/01/05 04:48:30;;;;;;;0.50;0.40;;;19.80;54.50;;;;;;5037056;28;20045;-66
2024/01/05 04:50:56;;;;;;;0.60;0.50;;;19.80;54.50;;;;;;5037480;28;20855;-65
2024/01/05 04:53:21;;;;;;;1.38;0.77;;;19.80;55.10;;;;;;5038084;28;20464;-65
2024/01/05 04:55:47;;;;;;;0.50;0.50;;;19.70;54.50;;;;;;5037372;28;20064;-66
2024/01/05 04:58:13;;;;;;;0.70;0.57;;;19.70;54.50;;;;;;5038658;28;20037;-65
2024/01/05 05:00:38;;;;;;;1.10;0.70;;;19.70;54.50;;;;;;5035596;28;20067;-66
2024/01/05 05:03:05;;;;;;;0.43;0.43;;;19.70;54.50;;;;;;5038284;28;20041;-66
2024/01/05 05:05:30;;;;;;;0.80;0.65;;;19.70;54.50;;;;;;5038294;28;20445;-66
2024/01/05 05:07:57;;;;;;;1.05;0.50;;;19.70;54.50;;;;;;5042679;28;20029;-66
2024/01/05 05:10:22;;;;;;;1.65;0.60;;;19.70;54.50;;;;;;5040922;28;20021;-65
2024/01/05 05:12:48;;;;;;;0.88;0.60;;;19.70;54.50;;;;;;5039047;28;20033;-65
2024/01/05 05:15:14;;;;;;;0.65;0.60;;;19.70;54.50;;;;;;5040510;28;20039;-65
2024/01/05 05:17:39;;;;;;;0.70;0.60;;;19.70;54.50;;;;;;5041662;28;20112;-66
2024/01/05 05:20:05;;;;;;;0.50;0.50;;;19.70;54.60;;;;;;5041151;28;20037;-67
2024/01/05 05:22:31;;;;;;;1.05;0.70;;;19.70;54.50;;;;;;5042374;28;20405;-66
2024/01/05 05:24:57;;;;;;;1.05;0.60;;;19.70;54.50;;;;;;5040509;28;20109;-66
2024/01/05 05:27:23;;;;;;;1.20;0.70;;;19.70;54.60;;;;;;5040196;28;20039;-65
2024/01/05 05:29:48;;;;;;;0.50;0.50;;;19.70;54.60;;;;;;5040137;28;20028;-65
2024/01/05 05:32:14;;;;;;;0.82;0.60;;;19.70;54.60;;;;;;5040510;28;20037;-66
2024/01/05 05:34:41;;;;;;;1.10;0.70;;;19.70;54.60;;;;;;5041515;28;20078;-65
2024/01/05 05:37:07;;;;;;;0.75;0.65;;;19.70;54.60;;;;;;5039938;28;20434;-66
2024/01/05 05:39:33;;;;;;;0.50;0.50;;;19.70;55.10;;;;;;5040378;28;20041;-66
2024/01/05 05:41:58;;;;;;;0.63;0.50;;;19.60;54.50;;;;;;5040753;28;20357;-65
2024/01/05 05:44:24;;;;;;;0.52;0.45;;;19.70;54.60;;;;;;5038649;28;20029;-65
2024/01/05 05:46:49;;;;;;;0.73;0.60;;;19.60;54.60;;;;;;5040774;28;20182;-67
2024/01/05 05:49:15;;;;;;;1.00;0.70;;;19.60;54.60;;;;;;5042107;28;20503;-67
2024/01/05 05:51:40;;;;;;;0.85;0.60;;;19.60;54.60;;;;;;5039697;28;20091;-70
2024/01/05 05:54:06;;;;;;;0.90;0.70;;;19.60;54.60;;;;;;5036469;28;20504;-70
2024/01/05 05:56:32;;;;;;;0.90;0.63;;;19.60;54.60;;;;;;5037737;28;20036;-70
2024/01/05 05:58:57;;;;;;;0.95;0.60;;;19.60;54.60;;;;;;5039777;28;20017;-69
2024/01/05 06:01:24;;;;;;;0.77;0.63;;;19.60;54.60;;;;;;5037456;28;20018;-70
2024/01/05 06:03:50;;;;;;;0.50;0.50;;;19.60;54.60;;;;;;5041935;28;20121;-70
2024/01/05 06:06:21;;;;;;;0.60;0.60;;;19.60;54.60;;;;;;5038678;28;20180;-70
2024/01/05 06:08:47;;;;;;;0.60;0.60;;;19.60;54.60;;;;;;5040271;28;20029;-70
2024/01/05 06:11:17;;;;;;;0.98;0.70;;;19.60;54.60;;;;;;5040087;28;20025;-70
2024/01/05 06:13:42;;;;;;;0.85;0.70;;;19.50;54.60;;;;;;5039307;28;20104;-71
2024/01/05 06:16:08;;;;;;;1.02;0.60;;;19.60;54.60;;;;;;5036951;28;20444;-70
2024/01/05 06:18:34;;;;;;;1.00;0.70;;;19.60;54.60;;;;;;5039108;28;20029;-70
2024/01/05 06:21:00;;;;;;;0.60;0.60;;;19.60;54.60;;;;;;5038945;28;20052;-69
2024/01/05 06:23:26;;;;;;;0.60;0.50;;;19.60;54.60;;;;;;5043375;28;20057;-71
2024/01/05 06:25:51;;;;;;;0.60;0.50;;;19.60;54.60;;;;;;5041189;28;20382;-70
2024/01/05 06:28:17;;;;;;;1.00;0.70;;;19.60;54.60;;;;;;5040341;28;20037;-70
2024/01/05 06:30:43;;;;;;;1.15;0.70;;;19.60;55.20;;;;;;5037529;28;20469;-67
2024/01/05 06:33:08;;;;;;;0.50;0.50;;;19.60;54.60;;;;;;5040229;28;20021;-65
2024/01/05 06:35:34;;;;;;;0.57;0.57;;;19.50;54.60;;;;;;5041186;28;20037;-66
2024/01/05 06:37:59;;;;;;;0.80;0.60;;;19.50;54.60;;;;;;5040740;28;20772;-66
2024/01/05 06:40:25;;;;;;;0.93;0.55;;;19.50;54.60;;;;;;5041549;28;20032;-65
2024/01/05 06:42:51;;;;;;;0.55;0.50;;;19.50;54.70;;;;;;5039080;28;20029;-64
2024/01/05 06:45:17;;;;;;;0.60;0.52;;;19.50;54.60;;;;;;5037689;28;20104;-65
2024/01/05 06:47:42;;;;;;;0.90;0.60;;;19.50;54.70;;;;;;5039781;28;20516;-66
2024/01/05 06:50:08;;;;;;;0.60;0.50;;;19.50;54.70;;;;;;5042444;28;20489;-63
2024/01/05 06:52:34;;;;;;;0.75;0.60;;;19.50;54.70;;;;;;5038053;28;20037;-65
2024/01/05 06:55:00;;;;;;;0.98;0.63;;;19.50;54.70;;;;;;5040266;28;20083;-66
2024/01/05 06:57:26;;;;;;;1.05;0.50;;;19.50;54.70;;;;;;5040544;28;20030;-63
2024/01/05 06:59:51;;;;;;;1.02;0.60;;;19.50;54.70;;;;;;5037926;28;20778;-71
2024/01/05 07:02:17;;;;;;;0.70;0.60;;;19.50;54.70;;;;;;5040821;28;20079;-65
2024/01/05 07:04:43;;;;;;;0.60;0.60;;;19.50;54.70;;;;;;5041505;28;20462;-65
2024/01/05 07:07:08;;;;;;;0.85;0.75;;;19.50;54.80;;;;;;5039029;28;20025;-65
2024/01/05 07:09:34;;;;;;;0.90;0.60;;;19.50;54.70;;;;;;5038755;28;20035;-66
2024/01/05 07:12:00;;;;;;;0.50;0.50;;;19.50;54.70;;;;;;5038937;28;20493;-67
2024/01/05 07:14:29;;;;;;;1.23;0.70;;;19.50;54.70;;;;;;5040882;28;20120;-66
2024/01/05 07:16:58;;;;;;;;;;;19.50;54.80;;;;;;5035670;28;20389;-65
2024/01/05 07:19:24;;;;;;;0.70;0.60;;;19.40;54.70;;;;;;5037333;28;19955;-65
2024/01/05 07:21:50;;;;;;;0.80;0.60;;;19.50;54.70;;;;;;5037945;28;20461;-65
2024/01/05 07:24:17;;;;;;;0.52;0.50;;;19.40;54.70;;;;;;5038192;28;20488;-66
2024/01/05 07:26:43;;;;;;;0.93;0.70;;;19.40;54.70;;;;;;5039020;28;20052;-66
2024/01/05 07:29:09;;;;;;;0.70;0.60;;;19.40;54.80;;;;;;5039893;28;20024;-66
2024/01/05 07:31:34;;;;;;;1.08;0.70;;;19.40;54.80;;;;;;5037336;28;20033;-66
2024/01/05 07:34:00;;;;;;;0.65;0.52;;;19.40;54.70;;;;;;5039781;28;20027;-66
2024/01/05 07:36:26;;;;;;;1.00;0.70;;;19.40;54.80;;;;;;5036970;28;20036;-66
2024/01/05 07:38:52;;;;;;;0.70;0.50;;;19.40;54.80;;;;;;5040380;28;20147;-66
2024/01/05 07:41:18;;;;;;;0.50;0.50;;;19.40;54.80;;;;;;5037422;28;20035;-66
2024/01/05 07:43:44;;;;;;;0.50;0.50;;;19.40;54.70;;;;;;5036718;28;20048;-67
2024/01/05 07:46:10;;;;;;;0.90;0.60;;;19.40;54.80;;;;;;5036691;28;20060;-66
2024/01/05 07:48:40;;;;;;;0.60;0.50;;;19.40;54.80;;;;;;5037682;28;20513;-66
2024/01/05 07:51:06;;;;;;;0.52;0.50;;;19.40;54.80;;;;;;5035810;28;20036;-67
2024/01/05 07:53:31;;;;;;;0.73;0.60;;;19.40;54.80;;;;;;5038820;28;20413;-65
2024/01/05 07:56:02;;;;;;;0.50;0.50;;;19.40;54.80;;;;;;5035577;28;20037;-67
2024/01/05 07:58:28;;;;;;;0.75;0.60;;;19.40;54.80;;;;;;5035704;28;20080;-66
2024/01/05 08:00:53;;;;;;;0.80;0.60;;;19.40;54.80;;;;;;5038596;28;20474;-65
2024/01/05 08:03:19;;;;;;;0.50;0.50;;;19.40;54.80;;;;;;5039277;28;20075;-65
2024/01/05 08:05:45;;;;;;;0.73;0.60;;;19.40;54.90;;;;;;5035621;28;20021;-66
2024/01/05 08:08:11;;;;;;;0.60;0.52;;;19.40;54.80;;;;;;5036926;28;20068;-65
2024/01/05 08:10:37;;;;;;;1.15;0.70;;;19.40;54.90;;;;;;5037966;28;20649;-65
2024/01/05 08:13:02;;;;;;;1.17;0.70;;;19.40;54.80;;;;;;5037891;28;20072;-67
2024/01/05 08:15:28;;;;;;;0.65;0.60;;;19.40;54.90;;;;;;5039813;28;20078;-65
2024/01/05 08:17:54;;;;;;;0.52;0.50;;;19.40;54.90;;;;;;5038542;28;20025;-66
2024/01/05 08:20:20;;;;;;;0.95;0.60;;;19.40;54.90;;;;;;5039525;28;20411;-65
2024/01/05 08:22:45;;;;;;;0.60;0.50;;;19.40;54.90;;;;;;5039929;28;20036;-65
2024/01/05 08:25:14;;;;;;;0.88;0.60;;;19.40;54.90;;;;;;5038379;28;20032;-66
2024/01/05 08:27:39;;;;;;;0.77;0.50;;;19.40;55.10;;;;;;5037376;28;20405;-66
2024/01/05 08:30:07;;;;;;;0.93;0.50;;;19.40;55.30;;;;;;5038280;28;20029;-65
2024/01/05 08:32:33;;;;;;;0.95;0.60;;;19.40;55.90;;;;;;5036466;28;20033;-65
2024/01/05 08:34:59;;;;;;;1.98;0.60;;;19.40;55.50;;;;;;5052164;28;20987;-65
2024/01/05 08:37:25;;;;;;;1.08;0.75;;;19.50;55.50;;;;;;5037008;28;20105;-65
2024/01/05 08:39:51;;;;;;;0.57;0.55;;;19.50;55.50;;;;;;5037760;28;20021;-66
2024/01/05 08:42:16;;;;;;;0.50;0.50;;;19.60;55.50;;;;;;5038849;28;20691;-65
2024/01/05 08:44:42;;;;;;;0.60;0.50;;;19.60;55.50;;;;;;5037489;28;20029;-65
2024/01/05 08:47:08;;;;;;;0.60;0.50;;;19.70;55.50;;;;;;5033465;28;20087;-66
2024/01/05 08:49:34;;;;;;;1.00;0.70;;;19.80;55.40;;;;;;5037390;28;20124;-66
2024/01/05 08:52:00;;;;;;;0.90;0.77;;;19.80;55.30;;;;;;5036541;28;20033;-68
2024/01/05 08:54:26;;;;;;;0.70;0.55;;;19.90;55.30;;;;;;5037577;28;20112;-69
2024/01/05 08:56:52;;;;;;;0.73;0.47;;;19.90;55.20;;;;;;5039669;28;20048;-68
2024/01/05 08:59:18;;;;;;;0.90;0.65;;;20.00;55.10;;;;;;5037212;28;20067;-69
2024/01/05 09:01:43;;;;;;;1.10;0.70;;;20.10;55.10;;;;;;5037346;28;20025;-69
2024/01/05 09:04:10;;;;;;;0.80;0.60;;;20.10;55.00;;;;;;5037702;28;20079;-68
2024/01/05 09:06:38;;;;;;;0.50;0.50;;;20.20;55.00;;;;;;5036796;28;20462;-69
2024/01/05 09:09:04;;;;;;;0.70;0.70;;;20.30;54.90;;;;;;5039153;28;20025;-69
2024/01/05 09:11:30;;;;;;;0.50;0.50;;;20.30;54.80;;;;;;5042218;28;20024;-65
2024/01/05 09:13:55;;;;;;;0.60;0.60;;;20.30;54.70;;;;;;5033632;28;20541;-64
2024/01/05 09:16:21;;;;;;;0.60;0.60;;;20.40;54.70;;;;;;5031191;28;20033;-64
2024/01/05 09:18:47;;;;;;;0.60;0.60;;;20.50;54.60;;;;;;5035799;28;20393;-65
2024/01/05 09:21:13;;;;;;;0.85;0.60;;;20.50;54.40;;;;;;5037579;28;20025;-68
2024/01/05 09:23:41;;;;;;;0.80;0.70;;;20.50;54.40;;;;;;5038085;28;20022;-68
2024/01/05 09:26:13;;;;;;;0.60;0.60;;;20.60;54.30;;;;;;5036498;28;20065;-68
2024/01/05 09:28:39;;;;;;;0.75;0.50;;;20.60;54.30;;;;;;5038293;28;20389;-69
2024/01/05 09:31:04;;;;;;;0.88;0.55;;;20.70;54.20;;;;;;5036828;28;20033;-68
2024/01/05 09:33:30;;;;;;;0.75;0.57;;;20.70;54.10;;;;;;5037747;28;20447;-67
2024/01/05 09:35:56;;;;;;;0.52;0.50;;;20.80;54.30;;;;;;5037165;28;20048;-68
2024/01/05 09:38:21;;;;;;;0.50;0.50;;;20.90;54.50;;;;;;5036557;28;20029;-68
2024/01/05 09:40:47;;;;;;;0.82;0.60;;;21.10;54.40;;;;;;5037685;28;20033;-67
2024/01/05 09:43:16;;;;;;;0.60;0.55;;;21.20;54.20;;;;;;5034918;28;20026;-69
2024/01/05 09:45:44;;;;;;;0.90;0.60;;;21.20;53.50;;;;;;5036113;28;20025;-67
2024/01/05 09:48:10;;;;;;;0.50;0.50;;;21.20;53.40;;;;;;5036421;28;20060;-68
2024/01/05 09:50:36;;;;;;;0.47;0.47;;;21.30;53.50;;;;;;5038638;28;20086;-67
2024/01/05 09:53:04;;;;;;;1.02;0.63;;;21.20;53.40;;;;;;5053635;28;20063;-69
2024/01/05 09:55:30;;;;;;;1.00;0.60;;;21.30;53.40;;;;;;5040299;28;20501;-69
2024/01/05 09:57:56;;;;;;;0.60;0.50;;;21.30;53.40;;;;;;5041546;28;20029;-68
2024/01/05 10:00:23;;;;;;;0.63;0.60;;;21.30;53.40;;;;;;5042831;28;20032;-69
2024/01/05 10:02:57;;;;;;;0.52;0.50;;;21.40;53.40;;;;;;5039692;28;20030;-68
2024/01/05 10:05:23;;;;;;;0.50;0.50;;;21.40;53.50;;;;;;5038815;28;20017;-68
2024/01/05 10:07:48;;;;;;;0.65;0.50;;;21.50;53.70;;;;;;5041390;28;20492;-68
2024/01/05 10:10:14;;;;;;;0.90;0.60;;;21.50;53.20;;;;;;5039941;28;20034;-69
2024/01/05 10:12:40;;;;;;;1.05;0.60;;;21.50;53.20;;;;;;5041459;28;20131;-69
2024/01/05 10:15:06;;;;;;;0.90;0.60;;;21.60;53.30;;;;;;5041731;28;20537;-70
2024/01/05 10:17:33;;;;;;;0.73;0.57;;;21.70;53.00;;;;;;5039104;28;20136;-70
2024/01/05 10:20:16;;;;;;;0.90;0.60;;;21.70;53.00;;;;;;5037373;28;20151;-71
2024/01/05 10:22:46;;;;;;;0.50;0.45;;;21.80;52.70;;;;;;5036515;28;20013;-70
2024/01/05 10:25:15;;;;;;;0.60;0.60;;;21.80;52.70;;;;;;5040540;28;20097;-71
2024/01/05 10:27:41;;;;;;;0.90;0.60;;;21.80;52.90;;;;;;5040929;28;20030;-71
2024/01/05 10:30:07;;;;;;;1.08;0.63;;;21.90;52.80;;;;;;5041843;28;20036;-71
2024/01/05 10:32:32;;;;;;;0.52;0.50;;;22.00;52.70;;;;;;5037267;28;20508;-70
2024/01/05 10:34:58;;;;;;;0.93;0.50;;;22.10;52.50;;;;;;5040697;28;20029;-71
2024/01/05 10:37:24;;;;;;;0.60;0.60;;;22.10;52.40;;;;;;5036942;28;20536;-71
2024/01/05 10:39:54;;;;;;;0.80;0.70;;;22.10;52.40;;;;;;5040568;28;20028;-70
2024/01/05 10:42:21;;;;;;;0.55;0.50;;;22.10;52.30;;;;;;5039527;28;20373;-71
2024/01/05 10:44:52;;;;;;;0.50;0.50;;;22.10;52.40;;;;;;5040603;28;20022;-70
2024/01/05 10:47:22;;;;;;;0.50;0.50;;;22.20;52.80;;;;;;5037984;28;20033;-71
2024/01/05 10:49:51;;;;;;;0.82;0.70;;;22.20;52.40;;;;;;5039576;28;20493;-71
2024/01/05 10:52:18;;;;;;;0.52;0.52;;;22.30;52.50;;;;;;5038363;28;20520;-71
2024/01/05 10:54:45;;;;;;;1.02;0.50;;;22.40;52.30;;;;;;5040304;28;20037;-70
2024/01/05 10:57:13;;;;;;;0.90;0.60;;;22.40;52.40;;;;;;5037005;28;20026;-70
2024/01/05 10:59:39;;;;;;;0.57;0.50;;;22.40;52.40;;;;;;5038419;28;20017;-71
2024/01/05 11:02:14;;;;;;;1.00;0.60;;;22.40;52.30;;;;;;5039458;28;20393;-70
2024/01/05 11:04:44;;;;;;;1.25;0.70;;;22.50;52.00;;;;;;5038682;28;20021;-71
2024/01/05 11:07:14;;;;;;;0.98;0.55;;;22.60;52.30;;;;;;5037721;28;20478;-71
2024/01/05 11:10:02;;;;;;;0.70;0.65;;;22.70;52.10;;;;;;5038187;28;20413;-70
2024/01/05 11:12:39;;;;;;;1.88;1.10;;;22.80;51.80;;;;;;5039926;28;20551;-71
2024/01/05 11:15:23;;;;;;;4.15;0.60;;;22.80;51.70;;;;;;5039810;28;20518;-69
2024/01/05 11:18:29;;;;;;;0.82;0.60;;;22.80;51.00;;;;;;5037069;28;20478;-70
2024/01/05 11:21:20;;;;;;;1.15;0.70;;;22.80;51.20;;;;;;5037007;28;20099;-70
2024/01/05 11:23:47;;;;;;;1.08;0.60;;;22.70;51.40;;;;;;5039115;28;20515;-71
2024/01/05 11:26:32;;;;;;;1.25;0.63;;;22.70;51.50;;;;;;5038167;28;20025;-69
2024/01/05 11:28:58;;;;;;;0.80;0.60;;;22.60;51.70;;;;;;5039694;28;20032;-69
2024/01/05 11:31:45;;;;;;;1.13;0.60;;;22.60;51.70;;;;;;5039621;28;20029;-70
2024/01/05 11:34:34;;;;;;;0.88;0.60;;;22.50;51.70;;;;;;5035901;28;20033;-70
2024/01/05 11:37:04;;;;;;;;;;;22.50;51.70;;;;;;5038755;28;20036;-70
2024/01/05 11:39:45;;;;;;;0.82;0.60;;;22.50;51.70;;;;;;5039246;28;20329;-71
2024/01/05 11:42:35;;;;;;;1.75;0.60;;;22.50;51.60;;;;;;5037700;28;20072;-62
2024/01/05 11:45:03;;;;;;;1.00;0.60;;;22.50;51.60;;;;;;5037668;28;20040;-63
2024/01/05 11:47:45;;;;;;;2.60;0.70;;;22.50;51.60;;;;;;5038090;28;20040;-62
2024/01/05 11:50:30;;;;;;;0.80;0.63;;;22.50;51.60;;;;;;5035755;28;20428;-62
2024/01/05 11:53:13;;;;;;;1.23;0.73;;;22.40;51.60;;;;;;5036992;28;20461;-64
2024/01/05 11:55:46;;;;;;;1.02;0.60;;;22.40;51.60;;;;;;5039837;28;20032;-62
2024/01/05 11:58:31;;;;;;;1.20;0.70;;;22.40;51.70;;;;;;5038960;28;20094;-63
2024/01/05 12:01:00;;;;;;;1.05;0.50;;;22.40;51.70;;;;;;5033286;28;20115;-63
2024/01/05 12:03:26;;;;;;;0.77;0.75;;;22.40;51.80;;;;;;5034289;28;20104;-62
2024/01/05 12:05:57;;;;;;;1.45;0.80;;;22.30;51.70;;;;;;5037145;28;20053;-63
2024/01/05 12:08:23;;;;;;;1.83;0.70;;;22.30;51.70;;;;;;5038758;28;20026;-64
2024/01/05 12:10:54;;;;;;;1.08;0.70;;;22.30;51.80;;;;;;5040083;28;20025;-63
2024/01/05 12:13:24;;;;;;;0.95;0.60;;;22.30;51.80;;;;;;5037639;28;20029;-62
2024/01/05 12:15:57;;;;;;;1.05;0.57;;;22.30;51.80;;;;;;5038777;28;20021;-63
2024/01/05 12:18:26;;;;;;;0.65;0.63;;;22.30;51.90;;;;;;5035468;28;20099;-64
2024/01/05 12:21:02;;;;;;;1.67;0.70;;;22.30;51.90;;;;;;5038016;28;20028;-64
2024/01/05 12:23:29;;;;;;;1.52;0.82;;;22.30;51.90;;;;;;5037058;28;20970;-65
2024/01/05 12:26:01;;;;;;;1.08;0.73;;;22.20;51.90;;;;;;5034855;28;20028;-63
2024/01/05 12:28:35;;;;;;;1.00;0.70;;;22.20;51.90;;;;;;5037977;28;20528;-64
2024/01/05 12:31:02;;;;;;;1.40;0.70;;;22.20;51.90;;;;;;5037464;28;20076;-64
2024/01/05 12:33:29;;;;;;;0.60;0.60;;;22.20;52.00;;;;;;5035376;28;20040;-65
2024/01/05 12:35:55;;;;;;;1.05;0.70;;;22.20;52.00;;;;;;5039901;28;20331;-65
2024/01/05 12:38:28;;;;;;;1.38;0.70;;;22.20;52.00;;;;;;5038786;28;20421;-64
2024/01/05 12:41:11;;;;;;;0.93;0.70;;;22.10;52.00;;;;;;5038244;28;20071;-70
2024/01/05 12:43:38;;;;;;;0.95;0.80;;;22.10;52.00;;;;;;5038433;28;20057;-69
2024/01/05 12:46:04;;;;;;;0.90;0.70;;;22.10;52.00;;;;;;5038115;28;20500;-70
2024/01/05 12:48:31;;;;;;;1.08;0.68;;;22.10;52.10;;;;;;5035303;28;20026;-70